sensor_id;sensor_type;location;lat;lon;timestamp;P1;durP1;ratioP1;P2;durP2;ratioP2
37367;SDS011;23240;43.210;27.910;2022-10-31T00:01:58;17.45;;;6.95;;
37367;SDS011;23240;43.210;27.910;2022-10-31T00:04:24;18.58;;;7.07;;
37367;SDS011;23240;43.210;27.910;2022-10-31T00:06:50;15.73;;;6.78;;
37367;SDS011;23240;43.210;27.910;2022-10-31T00:09:15;20.00;;;7.82;;
37367;SDS011;23240;43.210;27.910;2022-10-31T00:11:40;20.40;;;7.78;;
37367;SDS011;23240;43.210;27.910;2022-10-31T00:14:06;20.83;;;7.68;;
37367;SDS011;23240;43.210;27.910;2022-10-31T00:16:32;20.42;;;8.07;;
37367;SDS011;23240;43.210;27.910;2022-10-31T00:18:58;16.92;;;7.10;;
37367;SDS011;23240;43.210;27.910;2022-10-31T00:21:26;18.58;;;7.45;;
37367;SDS011;23240;43.210;27.910;2022-10-31T00:23:52;20.20;;;7.68;;
37367;SDS011;23240;43.210;27.910;2022-10-31T00:26:17;16.85;;;7.22;;
37367;SDS011;23240;43.210;27.910;2022-10-31T00:28:43;22.55;;;8.93;;
37367;SDS011;23240;43.210;27.910;2022-10-31T00:31:10;20.92;;;8.00;;
37367;SDS011;23240;43.210;27.910;2022-10-31T00:33:37;19.65;;;8.02;;
37367;SDS011;23240;43.210;27.910;2022-10-31T00:36:04;19.65;;;8.00;;
37367;SDS011;23240;43.210;27.910;2022-10-31T00:38:31;19.38;;;7.35;;
37367;SDS011;23240;43.210;27.910;2022-10-31T00:40:56;20.63;;;7.07;;
37367;SDS011;23240;43.210;27.910;2022-10-31T00:43:22;20.00;;;7.65;;
37367;SDS011;23240;43.210;27.910;2022-10-31T00:45:48;20.20;;;7.53;;
37367;SDS011;23240;43.210;27.910;2022-10-31T00:48:14;17.92;;;8.18;;
37367;SDS011;23240;43.210;27.910;2022-10-31T00:50:39;20.80;;;8.68;;
37367;SDS011;23240;43.210;27.910;2022-10-31T00:53:05;23.40;;;8.13;;
37367;SDS011;23240;43.210;27.910;2022-10-31T00:55:31;19.17;;;7.50;;
37367;SDS011;23240;43.210;27.910;2022-10-31T00:57:56;17.75;;;7.65;;
37367;SDS011;23240;43.210;27.910;2022-10-31T01:00:22;21.65;;;8.80;;
37367;SDS011;23240;43.210;27.910;2022-10-31T01:02:48;19.17;;;7.18;;
37367;SDS011;23240;43.210;27.910;2022-10-31T01:05:14;18.23;;;7.43;;
37367;SDS011;23240;43.210;27.910;2022-10-31T01:07:39;18.85;;;7.35;;
37367;SDS011;23240;43.210;27.910;2022-10-31T01:10:05;33.75;;;7.57;;
37367;SDS011;23240;43.210;27.910;2022-10-31T01:12:43;17.40;;;7.60;;
37367;SDS011;23240;43.210;27.910;2022-10-31T01:15:11;19.63;;;8.07;;
37367;SDS011;23240;43.210;27.910;2022-10-31T01:17:38;18.20;;;7.78;;
37367;SDS011;23240;43.210;27.910;2022-10-31T01:20:05;21.63;;;8.20;;
37367;SDS011;23240;43.210;27.910;2022-10-31T01:22:32;17.13;;;6.50;;
37367;SDS011;23240;43.210;27.910;2022-10-31T01:24:58;21.30;;;8.10;;
37367;SDS011;23240;43.210;27.910;2022-10-31T01:27:24;17.40;;;7.05;;
37367;SDS011;23240;43.210;27.910;2022-10-31T01:29:49;18.25;;;7.80;;
37367;SDS011;23240;43.210;27.910;2022-10-31T01:32:15;19.92;;;7.93;;
37367;SDS011;23240;43.210;27.910;2022-10-31T01:34:40;20.52;;;7.13;;
37367;SDS011;23240;43.210;27.910;2022-10-31T01:37:06;18.08;;;7.20;;
37367;SDS011;23240;43.210;27.910;2022-10-31T01:39:31;20.00;;;7.43;;
37367;SDS011;23240;43.210;27.910;2022-10-31T01:41:57;19.48;;;7.43;;
37367;SDS011;23240;43.210;27.910;2022-10-31T01:46:49;20.05;;;7.63;;
37367;SDS011;23240;43.210;27.910;2022-10-31T01:49:28;20.30;;;9.02;;
37367;SDS011;23240;43.210;27.910;2022-10-31T01:54:45;19.33;;;7.45;;
37367;SDS011;23240;43.210;27.910;2022-10-31T01:57:16;19.25;;;7.65;;
37367;SDS011;23240;43.210;27.910;2022-10-31T01:59:46;21.83;;;8.23;;
37367;SDS011;23240;43.210;27.910;2022-10-31T02:02:15;17.08;;;7.28;;
37367;SDS011;23240;43.210;27.910;2022-10-31T02:04:43;21.90;;;8.63;;
37367;SDS011;23240;43.210;27.910;2022-10-31T02:07:12;20.05;;;8.00;;
37367;SDS011;23240;43.210;27.910;2022-10-31T02:09:41;19.70;;;7.03;;
37367;SDS011;23240;43.210;27.910;2022-10-31T02:12:10;20.58;;;7.85;;
37367;SDS011;23240;43.210;27.910;2022-10-31T02:14:37;20.58;;;7.80;;
37367;SDS011;23240;43.210;27.910;2022-10-31T02:17:03;18.13;;;7.00;;
37367;SDS011;23240;43.210;27.910;2022-10-31T02:27:48;18.50;;;7.38;;
37367;SDS011;23240;43.210;27.910;2022-10-31T02:32:58;22.65;;;7.32;;
37367;SDS011;23240;43.210;27.910;2022-10-31T02:46:52;21.27;;;8.10;;
37367;SDS011;23240;43.210;27.910;2022-10-31T02:49:38;19.05;;;8.15;;
37367;SDS011;23240;43.210;27.910;2022-10-31T02:52:25;21.15;;;7.50;;
37367;SDS011;23240;43.210;27.910;2022-10-31T02:54:54;18.13;;;8.07;;
37367;SDS011;23240;43.210;27.910;2022-10-31T02:57:28;29.95;;;7.20;;
37367;SDS011;23240;43.210;27.910;2022-10-31T03:00:13;21.80;;;7.78;;
37367;SDS011;23240;43.210;27.910;2022-10-31T03:02:53;20.98;;;8.30;;
37367;SDS011;23240;43.210;27.910;2022-10-31T03:08:14;22.70;;;9.90;;
37367;SDS011;23240;43.210;27.910;2022-10-31T03:11:02;28.05;;;10.68;;
37367;SDS011;23240;43.210;27.910;2022-10-31T03:21:23;23.63;;;9.60;;
37367;SDS011;23240;43.210;27.910;2022-10-31T03:23:52;26.63;;;10.68;;
37367;SDS011;23240;43.210;27.910;2022-10-31T03:26:19;25.52;;;10.25;;
37367;SDS011;23240;43.210;27.910;2022-10-31T03:28:53;25.98;;;9.57;;
37367;SDS011;23240;43.210;27.910;2022-10-31T03:31:27;23.17;;;8.75;;
37367;SDS011;23240;43.210;27.910;2022-10-31T03:34:00;22.98;;;9.18;;
37367;SDS011;23240;43.210;27.910;2022-10-31T03:36:28;21.92;;;9.13;;
37367;SDS011;23240;43.210;27.910;2022-10-31T03:38:57;21.08;;;8.05;;
37367;SDS011;23240;43.210;27.910;2022-10-31T03:41:27;21.10;;;8.65;;
37367;SDS011;23240;43.210;27.910;2022-10-31T03:44:01;21.23;;;8.65;;
37367;SDS011;23240;43.210;27.910;2022-10-31T03:46:31;25.20;;;9.20;;
37367;SDS011;23240;43.210;27.910;2022-10-31T03:48:57;19.65;;;8.25;;
37367;SDS011;23240;43.210;27.910;2022-10-31T03:51:30;16.77;;;7.50;;
37367;SDS011;23240;43.210;27.910;2022-10-31T03:54:15;21.48;;;8.23;;
37367;SDS011;23240;43.210;27.910;2022-10-31T03:56:50;24.52;;;8.40;;
37367;SDS011;23240;43.210;27.910;2022-10-31T04:04:23;21.60;;;8.38;;
37367;SDS011;23240;43.210;27.910;2022-10-31T04:06:50;22.02;;;7.57;;
37367;SDS011;23240;43.210;27.910;2022-10-31T04:09:17;18.90;;;6.63;;
37367;SDS011;23240;43.210;27.910;2022-10-31T04:11:48;20.48;;;8.05;;
37367;SDS011;23240;43.210;27.910;2022-10-31T04:14:16;19.35;;;7.57;;
37367;SDS011;23240;43.210;27.910;2022-10-31T04:16:42;24.40;;;8.35;;
37367;SDS011;23240;43.210;27.910;2022-10-31T04:19:10;17.20;;;6.40;;
37367;SDS011;23240;43.210;27.910;2022-10-31T04:21:36;28.63;;;7.97;;
37367;SDS011;23240;43.210;27.910;2022-10-31T04:24:02;17.60;;;6.63;;
37367;SDS011;23240;43.210;27.910;2022-10-31T04:26:28;23.48;;;7.05;;
37367;SDS011;23240;43.210;27.910;2022-10-31T04:28:53;20.17;;;7.28;;
37367;SDS011;23240;43.210;27.910;2022-10-31T04:31:19;22.15;;;7.82;;
37367;SDS011;23240;43.210;27.910;2022-10-31T04:33:45;19.88;;;7.80;;
37367;SDS011;23240;43.210;27.910;2022-10-31T04:36:10;17.98;;;7.45;;
37367;SDS011;23240;43.210;27.910;2022-10-31T04:38:36;20.23;;;7.85;;
37367;SDS011;23240;43.210;27.910;2022-10-31T04:41:01;21.13;;;7.13;;
37367;SDS011;23240;43.210;27.910;2022-10-31T04:43:27;21.27;;;8.95;;
37367;SDS011;23240;43.210;27.910;2022-10-31T04:45:52;24.00;;;9.00;;
37367;SDS011;23240;43.210;27.910;2022-10-31T04:48:18;23.85;;;9.25;;
37367;SDS011;23240;43.210;27.910;2022-10-31T04:50:43;23.92;;;8.63;;
37367;SDS011;23240;43.210;27.910;2022-10-31T04:53:09;24.35;;;9.75;;
37367;SDS011;23240;43.210;27.910;2022-10-31T04:55:35;23.42;;;8.40;;
37367;SDS011;23240;43.210;27.910;2022-10-31T04:58:01;22.50;;;8.05;;
37367;SDS011;23240;43.210;27.910;2022-10-31T05:00:27;22.67;;;8.68;;
37367;SDS011;23240;43.210;27.910;2022-10-31T05:02:54;18.30;;;7.10;;
37367;SDS011;23240;43.210;27.910;2022-10-31T05:05:22;25.48;;;8.82;;
37367;SDS011;23240;43.210;27.910;2022-10-31T05:07:53;25.77;;;8.90;;
37367;SDS011;23240;43.210;27.910;2022-10-31T05:10:20;21.20;;;9.30;;
37367;SDS011;23240;43.210;27.910;2022-10-31T05:12:49;24.25;;;8.95;;
37367;SDS011;23240;43.210;27.910;2022-10-31T05:15:17;20.73;;;8.88;;
37367;SDS011;23240;43.210;27.910;2022-10-31T05:17:43;22.85;;;8.15;;
37367;SDS011;23240;43.210;27.910;2022-10-31T05:20:09;22.52;;;8.85;;
37367;SDS011;23240;43.210;27.910;2022-10-31T05:22:36;20.65;;;7.90;;
37367;SDS011;23240;43.210;27.910;2022-10-31T05:25:02;26.60;;;10.15;;
37367;SDS011;23240;43.210;27.910;2022-10-31T05:27:28;24.42;;;10.32;;
37367;SDS011;23240;43.210;27.910;2022-10-31T05:29:53;24.23;;;10.15;;
37367;SDS011;23240;43.210;27.910;2022-10-31T05:32:19;23.85;;;9.43;;
37367;SDS011;23240;43.210;27.910;2022-10-31T05:34:44;25.98;;;9.85;;
37367;SDS011;23240;43.210;27.910;2022-10-31T05:37:10;20.65;;;8.32;;
37367;SDS011;23240;43.210;27.910;2022-10-31T05:39:36;26.08;;;9.63;;
37367;SDS011;23240;43.210;27.910;2022-10-31T05:42:02;23.35;;;9.52;;
37367;SDS011;23240;43.210;27.910;2022-10-31T05:44:28;26.42;;;10.35;;
37367;SDS011;23240;43.210;27.910;2022-10-31T05:46:54;24.90;;;10.80;;
37367;SDS011;23240;43.210;27.910;2022-10-31T05:49:19;23.70;;;9.82;;
37367;SDS011;23240;43.210;27.910;2022-10-31T05:51:45;20.75;;;8.20;;
37367;SDS011;23240;43.210;27.910;2022-10-31T05:54:10;24.85;;;8.52;;
37367;SDS011;23240;43.210;27.910;2022-10-31T05:56:36;19.75;;;7.32;;
37367;SDS011;23240;43.210;27.910;2022-10-31T05:59:01;22.40;;;8.50;;
37367;SDS011;23240;43.210;27.910;2022-10-31T06:01:27;25.13;;;8.45;;
37367;SDS011;23240;43.210;27.910;2022-10-31T06:03:52;17.92;;;7.05;;
37367;SDS011;23240;43.210;27.910;2022-10-31T06:06:18;22.45;;;8.13;;
37367;SDS011;23240;43.210;27.910;2022-10-31T06:08:43;24.00;;;7.80;;
37367;SDS011;23240;43.210;27.910;2022-10-31T06:11:08;20.95;;;7.40;;
37367;SDS011;23240;43.210;27.910;2022-10-31T06:13:34;21.27;;;8.48;;
37367;SDS011;23240;43.210;27.910;2022-10-31T06:15:59;20.67;;;8.18;;
37367;SDS011;23240;43.210;27.910;2022-10-31T06:18:25;21.00;;;8.02;;
37367;SDS011;23240;43.210;27.910;2022-10-31T06:20:50;26.40;;;9.02;;
37367;SDS011;23240;43.210;27.910;2022-10-31T06:23:16;20.73;;;7.93;;
37367;SDS011;23240;43.210;27.910;2022-10-31T06:25:41;18.02;;;6.88;;
37367;SDS011;23240;43.210;27.910;2022-10-31T06:28:07;21.17;;;7.93;;
37367;SDS011;23240;43.210;27.910;2022-10-31T06:30:32;20.65;;;8.40;;
37367;SDS011;23240;43.210;27.910;2022-10-31T06:33:01;22.25;;;8.48;;
37367;SDS011;23240;43.210;27.910;2022-10-31T06:35:28;21.63;;;8.75;;
37367;SDS011;23240;43.210;27.910;2022-10-31T06:37:54;19.50;;;7.47;;
37367;SDS011;23240;43.210;27.910;2022-10-31T06:40:19;21.60;;;7.93;;
37367;SDS011;23240;43.210;27.910;2022-10-31T06:42:45;19.35;;;7.90;;
37367;SDS011;23240;43.210;27.910;2022-10-31T06:45:11;21.45;;;7.65;;
37367;SDS011;23240;43.210;27.910;2022-10-31T06:47:36;19.63;;;8.02;;
37367;SDS011;23240;43.210;27.910;2022-10-31T06:50:02;20.17;;;7.75;;
37367;SDS011;23240;43.210;27.910;2022-10-31T06:52:27;21.80;;;8.18;;
37367;SDS011;23240;43.210;27.910;2022-10-31T06:54:53;23.92;;;8.50;;
37367;SDS011;23240;43.210;27.910;2022-10-31T06:57:18;24.73;;;8.68;;
37367;SDS011;23240;43.210;27.910;2022-10-31T06:59:44;22.25;;;9.20;;
37367;SDS011;23240;43.210;27.910;2022-10-31T07:02:10;27.20;;;9.25;;
37367;SDS011;23240;43.210;27.910;2022-10-31T07:04:36;21.85;;;9.13;;
37367;SDS011;23240;43.210;27.910;2022-10-31T07:07:01;18.70;;;7.78;;
37367;SDS011;23240;43.210;27.910;2022-10-31T07:09:27;23.58;;;8.80;;
37367;SDS011;23240;43.210;27.910;2022-10-31T07:11:53;21.95;;;8.60;;
37367;SDS011;23240;43.210;27.910;2022-10-31T07:14:18;22.33;;;8.32;;
37367;SDS011;23240;43.210;27.910;2022-10-31T07:16:47;19.33;;;7.50;;
37367;SDS011;23240;43.210;27.910;2022-10-31T07:19:15;20.30;;;7.82;;
37367;SDS011;23240;43.210;27.910;2022-10-31T07:21:40;22.73;;;8.43;;
37367;SDS011;23240;43.210;27.910;2022-10-31T07:24:06;22.08;;;7.15;;
37367;SDS011;23240;43.210;27.910;2022-10-31T07:26:31;19.40;;;7.43;;
37367;SDS011;23240;43.210;27.910;2022-10-31T07:28:57;25.90;;;8.90;;
37367;SDS011;23240;43.210;27.910;2022-10-31T07:31:24;18.50;;;7.63;;
37367;SDS011;23240;43.210;27.910;2022-10-31T07:33:50;21.95;;;8.60;;
37367;SDS011;23240;43.210;27.910;2022-10-31T07:36:15;20.73;;;7.68;;
37367;SDS011;23240;43.210;27.910;2022-10-31T07:38:41;20.88;;;7.47;;
37367;SDS011;23240;43.210;27.910;2022-10-31T07:41:06;16.95;;;7.28;;
37367;SDS011;23240;43.210;27.910;2022-10-31T07:43:32;18.40;;;7.63;;
37367;SDS011;23240;43.210;27.910;2022-10-31T07:45:58;19.15;;;7.10;;
37367;SDS011;23240;43.210;27.910;2022-10-31T07:48:23;22.20;;;6.93;;
37367;SDS011;23240;43.210;27.910;2022-10-31T07:50:49;21.60;;;7.45;;
37367;SDS011;23240;43.210;27.910;2022-10-31T07:53:14;15.85;;;6.45;;
37367;SDS011;23240;43.210;27.910;2022-10-31T07:55:41;18.08;;;6.63;;
37367;SDS011;23240;43.210;27.910;2022-10-31T07:58:16;21.27;;;7.78;;
37367;SDS011;23240;43.210;27.910;2022-10-31T08:00:43;20.15;;;7.65;;
37367;SDS011;23240;43.210;27.910;2022-10-31T08:03:10;23.75;;;7.68;;
37367;SDS011;23240;43.210;27.910;2022-10-31T08:05:38;19.85;;;7.32;;
37367;SDS011;23240;43.210;27.910;2022-10-31T08:08:05;23.05;;;7.22;;
37367;SDS011;23240;43.210;27.910;2022-10-31T08:10:32;17.73;;;7.07;;
37367;SDS011;23240;43.210;27.910;2022-10-31T08:12:59;17.10;;;7.03;;
37367;SDS011;23240;43.210;27.910;2022-10-31T08:15:26;23.25;;;7.25;;
37367;SDS011;23240;43.210;27.910;2022-10-31T08:17:52;18.27;;;6.60;;
37367;SDS011;23240;43.210;27.910;2022-10-31T08:20:18;20.48;;;6.95;;
37367;SDS011;23240;43.210;27.910;2022-10-31T08:22:51;18.95;;;7.20;;
37367;SDS011;23240;43.210;27.910;2022-10-31T08:25:17;19.42;;;7.28;;
37367;SDS011;23240;43.210;27.910;2022-10-31T08:27:43;18.73;;;7.38;;
37367;SDS011;23240;43.210;27.910;2022-10-31T08:30:14;19.55;;;7.82;;
37367;SDS011;23240;43.210;27.910;2022-10-31T08:32:39;17.50;;;6.93;;
37367;SDS011;23240;43.210;27.910;2022-10-31T08:35:05;16.48;;;6.45;;
37367;SDS011;23240;43.210;27.910;2022-10-31T08:37:30;18.50;;;7.35;;
37367;SDS011;23240;43.210;27.910;2022-10-31T08:39:56;17.25;;;6.80;;
37367;SDS011;23240;43.210;27.910;2022-10-31T08:42:21;22.27;;;7.75;;
37367;SDS011;23240;43.210;27.910;2022-10-31T08:44:47;21.45;;;7.68;;
37367;SDS011;23240;43.210;27.910;2022-10-31T08:47:12;18.00;;;7.03;;
37367;SDS011;23240;43.210;27.910;2022-10-31T08:49:38;20.52;;;7.55;;
37367;SDS011;23240;43.210;27.910;2022-10-31T08:52:03;18.48;;;6.80;;
37367;SDS011;23240;43.210;27.910;2022-10-31T08:54:29;16.85;;;6.18;;
37367;SDS011;23240;43.210;27.910;2022-10-31T08:56:59;18.23;;;6.88;;
37367;SDS011;23240;43.210;27.910;2022-10-31T08:59:25;25.95;;;7.78;;
37367;SDS011;23240;43.210;27.910;2022-10-31T09:01:50;20.38;;;7.22;;
37367;SDS011;23240;43.210;27.910;2022-10-31T09:04:16;15.93;;;6.32;;
37367;SDS011;23240;43.210;27.910;2022-10-31T09:06:41;21.17;;;7.85;;
37367;SDS011;23240;43.210;27.910;2022-10-31T09:09:07;19.15;;;7.60;;
37367;SDS011;23240;43.210;27.910;2022-10-31T09:11:32;19.88;;;7.50;;
37367;SDS011;23240;43.210;27.910;2022-10-31T09:13:58;18.70;;;7.40;;
37367;SDS011;23240;43.210;27.910;2022-10-31T09:16:23;16.88;;;6.50;;
37367;SDS011;23240;43.210;27.910;2022-10-31T09:18:49;16.63;;;6.53;;
37367;SDS011;23240;43.210;27.910;2022-10-31T09:21:14;17.58;;;6.28;;
37367;SDS011;23240;43.210;27.910;2022-10-31T09:23:40;17.65;;;6.47;;
37367;SDS011;23240;43.210;27.910;2022-10-31T09:26:05;17.33;;;6.43;;
37367;SDS011;23240;43.210;27.910;2022-10-31T09:28:31;18.63;;;6.40;;
37367;SDS011;23240;43.210;27.910;2022-10-31T09:30:57;17.17;;;6.97;;
37367;SDS011;23240;43.210;27.910;2022-10-31T09:33:23;16.75;;;6.15;;
37367;SDS011;23240;43.210;27.910;2022-10-31T09:35:48;13.25;;;5.03;;
37367;SDS011;23240;43.210;27.910;2022-10-31T09:38:18;14.75;;;5.88;;
37367;SDS011;23240;43.210;27.910;2022-10-31T09:40:54;11.52;;;4.57;;
37367;SDS011;23240;43.210;27.910;2022-10-31T09:52:11;9.02;;;4.20;;
37367;SDS011;23240;43.210;27.910;2022-10-31T09:54:52;12.98;;;4.43;;
37367;SDS011;23240;43.210;27.910;2022-10-31T09:57:27;12.77;;;4.88;;
37367;SDS011;23240;43.210;27.910;2022-10-31T09:59:57;9.18;;;3.97;;
37367;SDS011;23240;43.210;27.910;2022-10-31T10:04:59;8.32;;;3.97;;
37367;SDS011;23240;43.210;27.910;2022-10-31T10:10:01;13.60;;;4.90;;
37367;SDS011;23240;43.210;27.910;2022-10-31T10:15:30;11.98;;;5.20;;
37367;SDS011;23240;43.210;27.910;2022-10-31T10:24:17;9.63;;;3.92;;
37367;SDS011;23240;43.210;27.910;2022-10-31T10:29:56;9.45;;;4.35;;
37367;SDS011;23240;43.210;27.910;2022-10-31T10:32:34;16.48;;;5.35;;
37367;SDS011;23240;43.210;27.910;2022-10-31T10:35:29;8.77;;;3.92;;
37367;SDS011;23240;43.210;27.910;2022-10-31T10:38:13;9.88;;;3.90;;
37367;SDS011;23240;43.210;27.910;2022-10-31T10:40:44;11.88;;;4.65;;
37367;SDS011;23240;43.210;27.910;2022-10-31T10:59:47;12.27;;;4.20;;
37367;SDS011;23240;43.210;27.910;2022-10-31T11:02:19;7.50;;;3.47;;
37367;SDS011;23240;43.210;27.910;2022-10-31T11:04:47;7.93;;;3.88;;
37367;SDS011;23240;43.210;27.910;2022-10-31T11:07:25;8.50;;;3.75;;
37367;SDS011;23240;43.210;27.910;2022-10-31T11:10:02;5.85;;;3.50;;
37367;SDS011;23240;43.210;27.910;2022-10-31T11:12:33;8.93;;;3.47;;
37367;SDS011;23240;43.210;27.910;2022-10-31T11:14:59;6.78;;;3.30;;
37367;SDS011;23240;43.210;27.910;2022-10-31T11:17:32;9.18;;;3.50;;
37367;SDS011;23240;43.210;27.910;2022-10-31T11:20:16;9.18;;;3.58;;
37367;SDS011;23240;43.210;27.910;2022-10-31T11:23:00;7.22;;;3.80;;
37367;SDS011;23240;43.210;27.910;2022-10-31T11:25:27;8.95;;;3.85;;
37367;SDS011;23240;43.210;27.910;2022-10-31T11:28:03;7.70;;;3.65;;
37367;SDS011;23240;43.210;27.910;2022-10-31T11:30:41;11.30;;;3.90;;
37367;SDS011;23240;43.210;27.910;2022-10-31T11:33:16;6.82;;;3.50;;
37367;SDS011;23240;43.210;27.910;2022-10-31T11:35:49;9.02;;;3.67;;
37367;SDS011;23240;43.210;27.910;2022-10-31T11:38:17;8.82;;;3.88;;
37367;SDS011;23240;43.210;27.910;2022-10-31T11:40:55;10.20;;;4.20;;
37367;SDS011;23240;43.210;27.910;2022-10-31T11:43:25;9.02;;;4.22;;
37367;SDS011;23240;43.210;27.910;2022-10-31T11:45:51;11.32;;;4.47;;
37367;SDS011;23240;43.210;27.910;2022-10-31T11:48:21;11.48;;;4.55;;
37367;SDS011;23240;43.210;27.910;2022-10-31T11:50:52;11.18;;;3.70;;
37367;SDS011;23240;43.210;27.910;2022-10-31T11:53:28;8.18;;;3.55;;
37367;SDS011;23240;43.210;27.910;2022-10-31T11:56:14;8.80;;;3.55;;
37367;SDS011;23240;43.210;27.910;2022-10-31T11:58:41;7.97;;;3.45;;
37367;SDS011;23240;43.210;27.910;2022-10-31T12:01:29;9.70;;;3.90;;
37367;SDS011;23240;43.210;27.910;2022-10-31T12:03:59;12.20;;;3.35;;
37367;SDS011;23240;43.210;27.910;2022-10-31T12:06:34;7.22;;;3.50;;
37367;SDS011;23240;43.210;27.910;2022-10-31T12:09:01;8.57;;;3.90;;
37367;SDS011;23240;43.210;27.910;2022-10-31T12:11:43;8.68;;;3.83;;
37367;SDS011;23240;43.210;27.910;2022-10-31T12:17:19;9.65;;;4.40;;
37367;SDS011;23240;43.210;27.910;2022-10-31T12:20:03;9.50;;;3.67;;
37367;SDS011;23240;43.210;27.910;2022-10-31T12:31:12;11.18;;;4.35;;
37367;SDS011;23240;43.210;27.910;2022-10-31T12:58:24;7.43;;;3.42;;
37367;SDS011;23240;43.210;27.910;2022-10-31T13:01:11;8.43;;;3.63;;
37367;SDS011;23240;43.210;27.910;2022-10-31T13:03:46;6.35;;;3.40;;
37367;SDS011;23240;43.210;27.910;2022-10-31T13:06:19;7.55;;;3.55;;
37367;SDS011;23240;43.210;27.910;2022-10-31T13:08:49;9.43;;;4.35;;
37367;SDS011;23240;43.210;27.910;2022-10-31T13:11:20;11.18;;;3.85;;
37367;SDS011;23240;43.210;27.910;2022-10-31T13:16:20;10.02;;;3.70;;
37367;SDS011;23240;43.210;27.910;2022-10-31T13:19:01;6.15;;;3.50;;
37367;SDS011;23240;43.210;27.910;2022-10-31T13:21:53;7.93;;;3.47;;
37367;SDS011;23240;43.210;27.910;2022-10-31T13:24:21;9.80;;;4.43;;
37367;SDS011;23240;43.210;27.910;2022-10-31T13:26:53;10.00;;;4.18;;
37367;SDS011;23240;43.210;27.910;2022-10-31T13:29:26;8.45;;;3.58;;
37367;SDS011;23240;43.210;27.910;2022-10-31T13:31:58;9.75;;;3.70;;
37367;SDS011;23240;43.210;27.910;2022-10-31T13:37:05;7.30;;;3.35;;
37367;SDS011;23240;43.210;27.910;2022-10-31T13:44:52;10.25;;;3.67;;
37367;SDS011;23240;43.210;27.910;2022-10-31T13:47:28;4.97;;;2.88;;
37367;SDS011;23240;43.210;27.910;2022-10-31T13:50:05;6.18;;;3.30;;
37367;SDS011;23240;43.210;27.910;2022-10-31T13:52:43;8.95;;;3.35;;
37367;SDS011;23240;43.210;27.910;2022-10-31T13:55:33;9.02;;;3.42;;
37367;SDS011;23240;43.210;27.910;2022-10-31T14:01:02;10.45;;;4.22;;
37367;SDS011;23240;43.210;27.910;2022-10-31T14:03:36;8.73;;;4.15;;
37367;SDS011;23240;43.210;27.910;2022-10-31T14:06:04;10.88;;;4.30;;
37367;SDS011;23240;43.210;27.910;2022-10-31T14:08:33;9.00;;;3.70;;
37367;SDS011;23240;43.210;27.910;2022-10-31T14:11:01;12.07;;;4.40;;
37367;SDS011;23240;43.210;27.910;2022-10-31T14:16:02;8.88;;;3.92;;
37367;SDS011;23240;43.210;27.910;2022-10-31T14:18:31;8.90;;;3.42;;
37367;SDS011;23240;43.210;27.910;2022-10-31T14:20:57;7.50;;;3.70;;
37367;SDS011;23240;43.210;27.910;2022-10-31T14:29:02;8.85;;;4.07;;
37367;SDS011;23240;43.210;27.910;2022-10-31T14:50:50;11.35;;;4.55;;
37367;SDS011;23240;43.210;27.910;2022-10-31T14:53:19;10.63;;;4.32;;
37367;SDS011;23240;43.210;27.910;2022-10-31T14:55:49;11.82;;;4.03;;
37367;SDS011;23240;43.210;27.910;2022-10-31T14:58:19;11.13;;;4.32;;
37367;SDS011;23240;43.210;27.910;2022-10-31T15:00:50;12.25;;;4.22;;
37367;SDS011;23240;43.210;27.910;2022-10-31T15:05:51;8.48;;;3.42;;
37367;SDS011;23240;43.210;27.910;2022-10-31T15:08:26;11.98;;;4.20;;
37367;SDS011;23240;43.210;27.910;2022-10-31T15:11:03;8.98;;;3.80;;
37367;SDS011;23240;43.210;27.910;2022-10-31T15:13:42;12.25;;;4.32;;
37367;SDS011;23240;43.210;27.910;2022-10-31T15:16:32;9.15;;;4.00;;
37367;SDS011;23240;43.210;27.910;2022-10-31T15:19:03;9.32;;;4.30;;
37367;SDS011;23240;43.210;27.910;2022-10-31T15:21:32;9.15;;;4.38;;
37367;SDS011;23240;43.210;27.910;2022-10-31T15:23:59;11.65;;;4.40;;
37367;SDS011;23240;43.210;27.910;2022-10-31T15:26:38;10.45;;;4.00;;
37367;SDS011;23240;43.210;27.910;2022-10-31T15:29:15;7.35;;;3.53;;
37367;SDS011;23240;43.210;27.910;2022-10-31T15:34:33;8.73;;;3.90;;
37367;SDS011;23240;43.210;27.910;2022-10-31T15:37:03;10.35;;;4.32;;
37367;SDS011;23240;43.210;27.910;2022-10-31T15:39:29;8.82;;;4.38;;
37367;SDS011;23240;43.210;27.910;2022-10-31T15:41:55;14.18;;;4.43;;
37367;SDS011;23240;43.210;27.910;2022-10-31T15:44:27;11.07;;;4.43;;
37367;SDS011;23240;43.210;27.910;2022-10-31T15:49:36;12.10;;;3.78;;
37367;SDS011;23240;43.210;27.910;2022-10-31T15:52:06;11.77;;;4.25;;
37367;SDS011;23240;43.210;27.910;2022-10-31T15:54:46;12.45;;;5.13;;
37367;SDS011;23240;43.210;27.910;2022-10-31T15:57:15;12.07;;;4.60;;
37367;SDS011;23240;43.210;27.910;2022-10-31T15:59:42;11.13;;;4.63;;
37367;SDS011;23240;43.210;27.910;2022-10-31T16:02:11;9.90;;;4.43;;
37367;SDS011;23240;43.210;27.910;2022-10-31T16:04:47;11.48;;;4.43;;
37367;SDS011;23240;43.210;27.910;2022-10-31T16:07:15;13.75;;;4.65;;
37367;SDS011;23240;43.210;27.910;2022-10-31T16:09:53;14.35;;;4.68;;
37367;SDS011;23240;43.210;27.910;2022-10-31T16:12:23;10.02;;;4.30;;
37367;SDS011;23240;43.210;27.910;2022-10-31T16:14:53;10.65;;;4.30;;
37367;SDS011;23240;43.210;27.910;2022-10-31T16:17:21;9.77;;;4.28;;
37367;SDS011;23240;43.210;27.910;2022-10-31T16:19:56;21.85;;;5.38;;
37367;SDS011;23240;43.210;27.910;2022-10-31T16:22:30;14.15;;;4.68;;
37367;SDS011;23240;43.210;27.910;2022-10-31T16:25:15;9.70;;;4.18;;
37367;SDS011;23240;43.210;27.910;2022-10-31T16:27:50;13.90;;;5.00;;
37367;SDS011;23240;43.210;27.910;2022-10-31T16:30:51;13.07;;;4.93;;
37367;SDS011;23240;43.210;27.910;2022-10-31T16:33:21;13.60;;;5.13;;
37367;SDS011;23240;43.210;27.910;2022-10-31T16:35:59;15.65;;;5.38;;
37367;SDS011;23240;43.210;27.910;2022-10-31T16:38:27;13.23;;;4.57;;
37367;SDS011;23240;43.210;27.910;2022-10-31T16:40:52;14.32;;;5.20;;
37367;SDS011;23240;43.210;27.910;2022-10-31T16:43:19;13.55;;;4.90;;
37367;SDS011;23240;43.210;27.910;2022-10-31T16:45:47;14.70;;;5.10;;
37367;SDS011;23240;43.210;27.910;2022-10-31T16:48:15;13.38;;;5.47;;
37367;SDS011;23240;43.210;27.910;2022-10-31T16:50:46;15.02;;;5.30;;
37367;SDS011;23240;43.210;27.910;2022-10-31T16:53:13;13.55;;;5.78;;
37367;SDS011;23240;43.210;27.910;2022-10-31T16:55:57;12.80;;;4.95;;
37367;SDS011;23240;43.210;27.910;2022-10-31T16:58:32;19.25;;;6.10;;
37367;SDS011;23240;43.210;27.910;2022-10-31T17:01:00;14.98;;;5.30;;
37367;SDS011;23240;43.210;27.910;2022-10-31T17:03:28;17.05;;;7.07;;
37367;SDS011;23240;43.210;27.910;2022-10-31T17:05:55;28.40;;;8.73;;
37367;SDS011;23240;43.210;27.910;2022-10-31T17:08:21;20.42;;;6.18;;
37367;SDS011;23240;43.210;27.910;2022-10-31T17:10:47;17.17;;;6.32;;
37367;SDS011;23240;43.210;27.910;2022-10-31T17:13:18;16.90;;;5.97;;
37367;SDS011;23240;43.210;27.910;2022-10-31T17:15:48;14.93;;;5.88;;
37367;SDS011;23240;43.210;27.910;2022-10-31T17:18:16;16.80;;;5.88;;
37367;SDS011;23240;43.210;27.910;2022-10-31T17:20:42;18.80;;;6.30;;
37367;SDS011;23240;43.210;27.910;2022-10-31T17:23:09;18.02;;;6.63;;
37367;SDS011;23240;43.210;27.910;2022-10-31T17:25:36;20.00;;;6.45;;
37367;SDS011;23240;43.210;27.910;2022-10-31T17:28:02;13.77;;;5.50;;